sensor_id;sensor_type;location;lat;lon;timestamp;pressure;altitude;pressure_sealevel;temperature;humidity
14269;BME280;7218;51.480;7.006;2022-12-18T00:02:02;101992.22;;;-5.12;100.00
14269;BME280;7218;51.480;7.006;2022-12-18T00:04:29;102001.84;;;-5.08;100.00
14269;BME280;7218;51.480;7.006;2022-12-18T00:06:56;102000.09;;;-5.09;100.00
14269;BME280;7218;51.480;7.006;2022-12-18T00:09:23;102012.56;;;-5.12;100.00
14269;BME280;7218;51.480;7.006;2022-12-18T00:11:50;102006.38;;;-5.16;100.00
14269;BME280;7218;51.480;7.006;2022-12-18T00:14:18;102005.06;;;-5.23;99.86
14269;BME280;7218;51.480;7.006;2022-12-18T00:16:45;102018.13;;;-5.30;99.98
14269;BME280;7218;51.480;7.006;2022-12-18T00:19:13;102009.50;;;-5.32;100.00
14269;BME280;7218;51.480;7.006;2022-12-18T00:21:41;102006.50;;;-5.38;100.00
14269;BME280;7218;51.480;7.006;2022-12-18T00:24:09;102000.56;;;-5.38;100.00
14269;BME280;7218;51.480;7.006;2022-12-18T00:26:37;101993.03;;;-5.37;100.00
14269;BME280;7218;51.480;7.006;2022-12-18T00:29:11;102002.22;;;-5.39;100.00
14269;BME280;7218;51.480;7.006;2022-12-18T00:31:39;102001.97;;;-5.42;100.00
14269;BME280;7218;51.480;7.006;2022-12-18T00:34:06;101989.16;;;-5.32;100.00
14269;BME280;7218;51.480;7.006;2022-12-18T00:36:34;101982.66;;;-5.40;100.00
14269;BME280;7218;51.480;7.006;2022-12-18T00:39:03;101985.19;;;-5.40;100.00
14269;BME280;7218;51.480;7.006;2022-12-18T00:41:30;101985.44;;;-5.48;100.00
14269;BME280;7218;51.480;7.006;2022-12-18T00:44:18;101989.72;;;-5.47;100.00
14269;BME280;7218;51.480;7.006;2022-12-18T00:46:45;101996.69;;;-5.45;100.00
14269;BME280;7218;51.480;7.006;2022-12-18T00:49:12;101995.16;;;-5.54;100.00
14269;BME280;7218;51.480;7.006;2022-12-18T00:51:39;101990.19;;;-5.53;100.00
14269;BME280;7218;51.480;7.006;2022-12-18T00:54:06;101997.13;;;-5.50;100.00
14269;BME280;7218;51.480;7.006;2022-12-18T00:56:32;101999.66;;;-5.50;100.00
14269;BME280;7218;51.480;7.006;2022-12-18T00:59:02;101999.13;;;-5.58;99.74
14269;BME280;7218;51.480;7.006;2022-12-18T01:01:32;101978.56;;;-5.61;99.52
14269;BME280;7218;51.480;7.006;2022-12-18T01:04:00;101981.66;;;-5.65;100.00
14269;BME280;7218;51.480;7.006;2022-12-18T01:06:27;101988.28;;;-5.67;100.00
14269;BME280;7218;51.480;7.006;2022-12-18T01:08:54;102000.00;;;-5.69;100.00
14269;BME280;7218;51.480;7.006;2022-12-18T01:11:22;102003.97;;;-5.61;100.00
14269;BME280;7218;51.480;7.006;2022-12-18T01:13:49;102001.75;;;-5.56;100.00
14269;BME280;7218;51.480;7.006;2022-12-18T01:16:17;102003.00;;;-5.63;100.00
14269;BME280;7218;51.480;7.006;2022-12-18T01:18:45;101999.75;;;-5.72;99.79
14269;BME280;7218;51.480;7.006;2022-12-18T01:21:14;102001.31;;;-5.74;100.00
14269;BME280;7218;51.480;7.006;2022-12-18T01:23:41;102002.41;;;-5.82;100.00
14269;BME280;7218;51.480;7.006;2022-12-18T01:26:09;102000.66;;;-5.83;100.00
14269;BME280;7218;51.480;7.006;2022-12-18T01:28:37;101993.13;;;-5.82;100.00
14269;BME280;7218;51.480;7.006;2022-12-18T01:31:11;102002.09;;;-5.75;100.00
14269;BME280;7218;51.480;7.006;2022-12-18T01:33:38;101993.69;;;-5.74;100.00
14269;BME280;7218;51.480;7.006;2022-12-18T01:36:06;101993.03;;;-5.72;100.00
14269;BME280;7218;51.480;7.006;2022-12-18T01:38:33;101992.06;;;-5.74;99.81
14269;BME280;7218;51.480;7.006;2022-12-18T01:41:00;101990.47;;;-5.72;99.98
14269;BME280;7218;51.480;7.006;2022-12-18T01:43:47;101991.50;;;-5.70;99.98
14269;BME280;7218;51.480;7.006;2022-12-18T01:46:16;101999.34;;;-5.78;100.00
14269;BME280;7218;51.480;7.006;2022-12-18T01:48:44;102000.00;;;-5.69;99.98
14269;BME280;7218;51.480;7.006;2022-12-18T01:51:13;101990.81;;;-5.67;99.74
14269;BME280;7218;51.480;7.006;2022-12-18T01:53:41;101986.63;;;-5.67;100.00
14269;BME280;7218;51.480;7.006;2022-12-18T01:56:08;101975.91;;;-5.63;99.72
14269;BME280;7218;51.480;7.006;2022-12-18T01:58:43;101970.94;;;-5.61;99.83
14269;BME280;7218;51.480;7.006;2022-12-18T02:01:13;101962.22;;;-5.65;99.53
14269;BME280;7218;51.480;7.006;2022-12-18T02:03:41;101956.47;;;-5.62;99.58
14269;BME280;7218;51.480;7.006;2022-12-18T02:06:15;101970.16;;;-5.60;99.79
14269;BME280;7218;51.480;7.006;2022-12-18T02:08:50;101959.88;;;-5.61;99.21
14269;BME280;7218;51.480;7.006;2022-12-18T02:11:27;101968.63;;;-5.58;99.08
14269;BME280;7218;51.480;7.006;2022-12-18T02:14:06;101967.06;;;-5.56;99.27
14269;BME280;7218;51.480;7.006;2022-12-18T02:16:43;101983.00;;;-5.58;98.74
14269;BME280;7218;51.480;7.006;2022-12-18T02:19:27;101988.72;;;-5.61;99.29
14269;BME280;7218;51.480;7.006;2022-12-18T02:22:03;101990.06;;;-5.66;99.42
14269;BME280;7218;51.480;7.006;2022-12-18T02:24:37;101995.13;;;-5.66;98.77
14269;BME280;7218;51.480;7.006;2022-12-18T02:27:10;101988.19;;;-5.69;99.27
14269;BME280;7218;51.480;7.006;2022-12-18T02:29:41;101974.34;;;-5.72;99.32
14269;BME280;7218;51.480;7.006;2022-12-18T02:32:11;101986.09;;;-5.74;99.52
14269;BME280;7218;51.480;7.006;2022-12-18T02:34:41;101973.94;;;-5.78;99.78
14269;BME280;7218;51.480;7.006;2022-12-18T02:37:13;101958.00;;;-5.76;99.36
14269;BME280;7218;51.480;7.006;2022-12-18T02:39:43;101966.41;;;-5.77;99.22
14269;BME280;7218;51.480;7.006;2022-12-18T02:42:14;101971.47;;;-5.77;99.19
14269;BME280;7218;51.480;7.006;2022-12-18T02:44:45;101964.22;;;-5.84;99.39
14269;BME280;7218;51.480;7.006;2022-12-18T02:47:14;101967.50;;;-5.85;99.05
14269;BME280;7218;51.480;7.006;2022-12-18T02:49:48;101968.28;;;-5.86;99.31
14269;BME280;7218;51.480;7.006;2022-12-18T02:52:24;101976.16;;;-5.83;98.72
14269;BME280;7218;51.480;7.006;2022-12-18T02:54:57;101977.59;;;-5.98;99.33
14269;BME280;7218;51.480;7.006;2022-12-18T02:57:34;101972.81;;;-6.05;99.66
14269;BME280;7218;51.480;7.006;2022-12-18T03:00:10;101977.22;;;-6.02;99.83
14269;BME280;7218;51.480;7.006;2022-12-18T03:02:43;101973.72;;;-6.04;99.90
14269;BME280;7218;51.480;7.006;2022-12-18T03:05:14;101984.97;;;-6.01;100.00
14269;BME280;7218;51.480;7.006;2022-12-18T03:07:45;101983.88;;;-6.04;99.75
14269;BME280;7218;51.480;7.006;2022-12-18T03:10:16;101981.06;;;-6.07;99.45
14269;BME280;7218;51.480;7.006;2022-12-18T03:12:47;101975.03;;;-6.10;99.79
14269;BME280;7218;51.480;7.006;2022-12-18T03:15:20;101980.56;;;-6.03;99.68
14269;BME280;7218;51.480;7.006;2022-12-18T03:17:52;101971.81;;;-6.07;99.35
14269;BME280;7218;51.480;7.006;2022-12-18T03:20:23;101964.41;;;-6.16;100.00
14269;BME280;7218;51.480;7.006;2022-12-18T03:22:54;101965.41;;;-6.14;99.58
14269;BME280;7218;51.480;7.006;2022-12-18T03:25:25;101959.53;;;-6.13;98.88
14269;BME280;7218;51.480;7.006;2022-12-18T03:27:56;101957.88;;;-6.12;98.77
14269;BME280;7218;51.480;7.006;2022-12-18T03:30:27;101954.72;;;-6.10;98.86
14269;BME280;7218;51.480;7.006;2022-12-18T03:33:01;101957.44;;;-6.30;99.22
14269;BME280;7218;51.480;7.006;2022-12-18T03:35:31;101955.00;;;-6.17;98.76
14269;BME280;7218;51.480;7.006;2022-12-18T03:38:00;101960.88;;;-6.18;98.87
14269;BME280;7218;51.480;7.006;2022-12-18T03:40:30;101961.09;;;-6.15;99.02
14269;BME280;7218;51.480;7.006;2022-12-18T03:43:03;101973.69;;;-6.16;98.81
14269;BME280;7218;51.480;7.006;2022-12-18T03:45:36;101969.38;;;-6.17;99.02
14269;BME280;7218;51.480;7.006;2022-12-18T03:48:07;101961.44;;;-6.10;98.71
14269;BME280;7218;51.480;7.006;2022-12-18T03:50:41;101958.34;;;-6.18;98.85
14269;BME280;7218;51.480;7.006;2022-12-18T03:53:20;101956.91;;;-6.14;98.35
14269;BME280;7218;51.480;7.006;2022-12-18T03:55:50;101952.91;;;-6.22;98.47
14269;BME280;7218;51.480;7.006;2022-12-18T03:58:24;101951.69;;;-6.27;98.57
14269;BME280;7218;51.480;7.006;2022-12-18T04:00:53;101960.97;;;-6.28;98.75
14269;BME280;7218;51.480;7.006;2022-12-18T04:03:22;101959.84;;;-6.31;99.03
14269;BME280;7218;51.480;7.006;2022-12-18T04:05:51;101961.31;;;-6.23;98.94
14269;BME280;7218;51.480;7.006;2022-12-18T04:08:19;101956.13;;;-6.25;98.63
14269;BME280;7218;51.480;7.006;2022-12-18T04:10:46;101948.72;;;-6.22;98.90
14269;BME280;7218;51.480;7.006;2022-12-18T04:13:23;101947.19;;;-6.20;98.66
14269;BME280;7218;51.480;7.006;2022-12-18T04:15:49;101947.53;;;-6.15;98.61
14269;BME280;7218;51.480;7.006;2022-12-18T04:18:18;101951.84;;;-6.14;98.00
14269;BME280;7218;51.480;7.006;2022-12-18T04:20:44;101955.13;;;-6.15;98.15
14269;BME280;7218;51.480;7.006;2022-12-18T04:23:11;101948.72;;;-6.22;97.79
14269;BME280;7218;51.480;7.006;2022-12-18T04:25:38;101949.50;;;-6.23;97.96
14269;BME280;7218;51.480;7.006;2022-12-18T04:28:05;101942.31;;;-6.17;97.92
14269;BME280;7218;51.480;7.006;2022-12-18T04:30:33;101945.00;;;-6.15;98.12
14269;BME280;7218;51.480;7.006;2022-12-18T04:32:59;101941.91;;;-6.23;98.37
14269;BME280;7218;51.480;7.006;2022-12-18T04:35:26;101940.13;;;-6.24;98.52
14269;BME280;7218;51.480;7.006;2022-12-18T04:37:55;101944.66;;;-6.20;98.18
14269;BME280;7218;51.480;7.006;2022-12-18T04:40:48;101941.56;;;-6.16;97.84
14269;BME280;7218;51.480;7.006;2022-12-18T04:43:14;101939.22;;;-6.13;97.69
14269;BME280;7218;51.480;7.006;2022-12-18T04:45:42;101934.63;;;-6.06;97.60
14269;BME280;7218;51.480;7.006;2022-12-18T04:48:09;101928.56;;;-6.08;96.73
14269;BME280;7218;51.480;7.006;2022-12-18T04:50:35;101930.41;;;-6.06;96.59
14269;BME280;7218;51.480;7.006;2022-12-18T04:53:02;101920.63;;;-6.13;96.55
14269;BME280;7218;51.480;7.006;2022-12-18T04:55:28;101929.75;;;-6.15;96.72
14269;BME280;7218;51.480;7.006;2022-12-18T04:57:55;101930.94;;;-6.22;97.69
14269;BME280;7218;51.480;7.006;2022-12-18T05:00:22;101930.59;;;-6.26;97.36
14269;BME280;7218;51.480;7.006;2022-12-18T05:02:50;101937.81;;;-6.21;97.13
14269;BME280;7218;51.480;7.006;2022-12-18T05:05:16;101925.97;;;-6.32;97.07
14269;BME280;7218;51.480;7.006;2022-12-18T05:07:43;101930.81;;;-6.35;97.42
14269;BME280;7218;51.480;7.006;2022-12-18T05:10:09;101924.22;;;-6.33;96.75
14269;BME280;7218;51.480;7.006;2022-12-18T05:12:36;101918.00;;;-6.36;97.06
14269;BME280;7218;51.480;7.006;2022-12-18T05:15:23;101911.63;;;-6.43;97.19
14269;BME280;7218;51.480;7.006;2022-12-18T05:17:51;101906.75;;;-6.40;97.67
14269;BME280;7218;51.480;7.006;2022-12-18T05:20:17;101903.75;;;-6.46;97.84
14269;BME280;7218;51.480;7.006;2022-12-18T05:22:44;101912.13;;;-6.47;97.95
14269;BME280;7218;51.480;7.006;2022-12-18T05:25:11;101913.28;;;-6.43;98.18
14269;BME280;7218;51.480;7.006;2022-12-18T05:27:37;101911.50;;;-6.44;98.56
14269;BME280;7218;51.480;7.006;2022-12-18T05:30:05;101908.53;;;-6.39;98.58
14269;BME280;7218;51.480;7.006;2022-12-18T05:32:32;101910.19;;;-6.39;98.26
14269;BME280;7218;51.480;7.006;2022-12-18T05:34:59;101921.56;;;-6.34;98.22
14269;BME280;7218;51.480;7.006;2022-12-18T05:37:26;101915.25;;;-6.39;98.83
14269;BME280;7218;51.480;7.006;2022-12-18T05:39:52;101911.16;;;-6.37;98.71
14269;BME280;7218;51.480;7.006;2022-12-18T05:42:19;101925.53;;;-6.38;98.50
14269;BME280;7218;51.480;7.006;2022-12-18T05:44:46;101919.44;;;-6.40;98.84
14269;BME280;7218;51.480;7.006;2022-12-18T05:47:12;101935.56;;;-6.39;99.05
14269;BME280;7218;51.480;7.006;2022-12-18T05:49:39;101936.13;;;-6.32;98.61
14269;BME280;7218;51.480;7.006;2022-12-18T05:52:06;101933.16;;;-6.38;98.81
14269;BME280;7218;51.480;7.006;2022-12-18T05:54:33;101936.78;;;-6.34;98.44
14269;BME280;7218;51.480;7.006;2022-12-18T05:56:59;101934.94;;;-6.25;98.81
14269;BME280;7218;51.480;7.006;2022-12-18T05:59:26;101933.06;;;-6.28;98.79
14269;BME280;7218;51.480;7.006;2022-12-18T06:01:52;101936.56;;;-6.26;98.80
14269;BME280;7218;51.480;7.006;2022-12-18T06:04:19;101940.22;;;-6.22;98.92
14269;BME280;7218;51.480;7.006;2022-12-18T06:06:45;101949.38;;;-6.24;98.54
14269;BME280;7218;51.480;7.006;2022-12-18T06:09:13;101962.97;;;-6.24;99.10
14269;BME280;7218;51.480;7.006;2022-12-18T06:11:40;101963.44;;;-6.18;98.58
14269;BME280;7218;51.480;7.006;2022-12-18T06:14:07;101975.91;;;-6.09;98.90
14269;BME280;7218;51.480;7.006;2022-12-18T06:16:33;101981.19;;;-6.06;97.87
14269;BME280;7218;51.480;7.006;2022-12-18T06:19:01;101990.91;;;-6.12;98.09
14269;BME280;7218;51.480;7.006;2022-12-18T06:21:28;101985.81;;;-6.24;98.18
14269;BME280;7218;51.480;7.006;2022-12-18T06:23:55;101985.19;;;-6.10;97.60
14269;BME280;7218;51.480;7.006;2022-12-18T06:26:24;101979.84;;;-6.13;97.19
14269;BME280;7218;51.480;7.006;2022-12-18T06:28:50;101975.22;;;-6.18;96.92
14269;BME280;7218;51.480;7.006;2022-12-18T06:31:16;101978.41;;;-6.21;96.83
14269;BME280;7218;51.480;7.006;2022-12-18T06:33:43;101977.72;;;-6.30;97.47
14269;BME280;7218;51.480;7.006;2022-12-18T06:36:11;101981.16;;;-6.29;97.99
14269;BME280;7218;51.480;7.006;2022-12-18T06:38:40;101974.91;;;-6.23;97.89
14269;BME280;7218;51.480;7.006;2022-12-18T06:41:08;101963.81;;;-6.35;97.92
14269;BME280;7218;51.480;7.006;2022-12-18T06:43:35;101964.50;;;-6.26;98.43
14269;BME280;7218;51.480;7.006;2022-12-18T06:46:03;101957.31;;;-6.31;98.10
14269;BME280;7218;51.480;7.006;2022-12-18T06:48:30;101958.53;;;-6.38;98.32
14269;BME280;7218;51.480;7.006;2022-12-18T06:50:57;101954.13;;;-6.29;97.70
14269;BME280;7218;51.480;7.006;2022-12-18T06:53:24;101944.19;;;-6.26;97.40
14269;BME280;7218;51.480;7.006;2022-12-18T06:55:51;101940.88;;;-6.25;97.07
14269;BME280;7218;51.480;7.006;2022-12-18T06:58:17;101936.38;;;-6.29;97.17
14269;BME280;7218;51.480;7.006;2022-12-18T07:00:45;101940.31;;;-6.32;97.62
14269;BME280;7218;51.480;7.006;2022-12-18T07:03:11;101933.69;;;-6.30;97.64
14269;BME280;7218;51.480;7.006;2022-12-18T07:05:39;101928.94;;;-6.37;97.81
14269;BME280;7218;51.480;7.006;2022-12-18T07:08:06;101914.81;;;-6.45;98.09
14269;BME280;7218;51.480;7.006;2022-12-18T07:10:32;101918.97;;;-6.46;98.10
14269;BME280;7218;51.480;7.006;2022-12-18T07:12:59;101928.59;;;-6.42;98.59
14269;BME280;7218;51.480;7.006;2022-12-18T07:15:25;101926.84;;;-6.43;98.55
14269;BME280;7218;51.480;7.006;2022-12-18T07:17:53;101926.03;;;-6.42;98.31
14269;BME280;7218;51.480;7.006;2022-12-18T07:20:20;101924.25;;;-6.55;98.93
14269;BME280;7218;51.480;7.006;2022-12-18T07:22:46;101915.91;;;-6.42;97.89
14269;BME280;7218;51.480;7.006;2022-12-18T07:25:12;101931.38;;;-6.39;97.98
14269;BME280;7218;51.480;7.006;2022-12-18T07:27:39;101918.56;;;-6.40;98.15
14269;BME280;7218;51.480;7.006;2022-12-18T07:30:07;101923.09;;;-6.36;97.93
14269;BME280;7218;51.480;7.006;2022-12-18T07:32:33;101916.25;;;-6.37;98.25
14269;BME280;7218;51.480;7.006;2022-12-18T07:35:02;101920.25;;;-6.29;97.81
14269;BME280;7218;51.480;7.006;2022-12-18T07:37:28;101916.69;;;-6.31;97.76
14269;BME280;7218;51.480;7.006;2022-12-18T07:39:55;101912.63;;;-6.29;97.70
14269;BME280;7218;51.480;7.006;2022-12-18T07:42:22;101910.97;;;-6.29;98.37
14269;BME280;7218;51.480;7.006;2022-12-18T07:44:57;101903.03;;;-6.22;97.99
14269;BME280;7218;51.480;7.006;2022-12-18T07:47:24;101905.81;;;-6.19;98.03
14269;BME280;7218;51.480;7.006;2022-12-18T07:49:50;101903.69;;;-6.13;98.28
14269;BME280;7218;51.480;7.006;2022-12-18T07:52:21;101900.41;;;-6.00;97.90
14269;BME280;7218;51.480;7.006;2022-12-18T07:54:48;101910.09;;;-6.06;97.02
14269;BME280;7218;51.480;7.006;2022-12-18T07:57:15;101899.53;;;-6.00;97.43
14269;BME280;7218;51.480;7.006;2022-12-18T07:59:41;101907.59;;;-5.94;97.96
14269;BME280;7218;51.480;7.006;2022-12-18T08:02:08;101912.09;;;-5.90;97.34
14269;BME280;7218;51.480;7.006;2022-12-18T08:04:34;101912.66;;;-5.83;97.32
14269;BME280;7218;51.480;7.006;2022-12-18T08:07:01;101914.94;;;-5.74;97.40
14269;BME280;7218;51.480;7.006;2022-12-18T08:09:29;101912.19;;;-5.66;97.33
14269;BME280;7218;51.480;7.006;2022-12-18T08:11:55;101910.19;;;-5.58;96.74
14269;BME280;7218;51.480;7.006;2022-12-18T08:14:22;101912.25;;;-5.52;97.40
14269;BME280;7218;51.480;7.006;2022-12-18T08:16:49;101899.09;;;-5.47;97.70
14269;BME280;7218;51.480;7.006;2022-12-18T08:19:15;101891.91;;;-5.41;97.29
14269;BME280;7218;51.480;7.006;2022-12-18T08:21:41;101896.09;;;-5.30;97.33
14269;BME280;7218;51.480;7.006;2022-12-18T08:24:08;101890.75;;;-5.21;96.97
14269;BME280;7218;51.480;7.006;2022-12-18T08:26:36;101883.19;;;-5.08;96.83
14269;BME280;7218;51.480;7.006;2022-12-18T08:29:03;101863.84;;;-5.06;97.22
14269;BME280;7218;51.480;7.006;2022-12-18T08:31:30;101866.34;;;-4.94;96.42
14269;BME280;7218;51.480;7.006;2022-12-18T08:33:56;101848.97;;;-4.88;96.72
14269;BME280;7218;51.480;7.006;2022-12-18T08:36:24;101851.84;;;-4.70;96.28
14269;BME280;7218;51.480;7.006;2022-12-18T08:38:51;101849.72;;;-4.64;96.06
14269;BME280;7218;51.480;7.006;2022-12-18T08:41:18;101853.34;;;-4.61;96.42
14269;BME280;7218;51.480;7.006;2022-12-18T08:43:46;101851.91;;;-4.44;96.20
14269;BME280;7218;51.480;7.006;2022-12-18T08:46:34;101847.53;;;-4.33;96.11
14269;BME280;7218;51.480;7.006;2022-12-18T08:49:01;101844.38;;;-4.29;96.46
14269;BME280;7218;51.480;7.006;2022-12-18T08:51:31;101835.97;;;-4.15;96.32
14269;BME280;7218;51.480;7.006;2022-12-18T08:54:01;101843.41;;;-4.05;95.90
14269;BME280;7218;51.480;7.006;2022-12-18T08:56:28;101835.56;;;-3.95;95.58
14269;BME280;7218;51.480;7.006;2022-12-18T08:58:58;101843.41;;;-3.79;95.97
14269;BME280;7218;51.480;7.006;2022-12-18T09:01:25;101845.75;;;-3.69;95.79
14269;BME280;7218;51.480;7.006;2022-12-18T09:03:52;101850.53;;;-3.60;95.45
14269;BME280;7218;51.480;7.006;2022-12-18T09:06:21;101839.63;;;-3.44;95.25
14269;BME280;7218;51.480;7.006;2022-12-18T09:08:48;101839.28;;;-3.36;95.16
14269;BME280;7218;51.480;7.006;2022-12-18T09:11:19;101838.56;;;-3.20;95.49
14269;BME280;7218;51.480;7.006;2022-12-18T09:13:47;101831.56;;;-3.10;94.99
14269;BME280;7218;51.480;7.006;2022-12-18T09:16:15;101828.25;;;-2.94;94.48
14269;BME280;7218;51.480;7.006;2022-12-18T09:18:42;101825.09;;;-2.90;93.73
14269;BME280;7218;51.480;7.006;2022-12-18T09:21:10;101806.97;;;-2.80;94.22
14269;BME280;7218;51.480;7.006;2022-12-18T09:23:37;101820.38;;;-2.69;94.12
14269;BME280;7218;51.480;7.006;2022-12-18T09:26:03;101814.91;;;-2.61;94.06
14269;BME280;7218;51.480;7.006;2022-12-18T09:28:30;101818.59;;;-2.55;93.58
14269;BME280;7218;51.480;7.006;2022-12-18T09:30:56;101803.91;;;-2.45;93.43
14269;BME280;7218;51.480;7.006;2022-12-18T09:33:24;101813.63;;;-2.23;93.47
14269;BME280;7218;51.480;7.006;2022-12-18T09:35:51;101808.69;;;-2.05;92.22
14269;BME280;7218;51.480;7.006;2022-12-18T09:38:18;101812.34;;;-1.86;91.51
14269;BME280;7218;51.480;7.006;2022-12-18T09:40:48;101814.38;;;-1.64;90.62
14269;BME280;7218;51.480;7.006;2022-12-18T09:43:18;101801.94;;;-1.42;90.29
14269;BME280;7218;51.480;7.006;2022-12-18T09:45:47;101802.91;;;-1.23;90.23
14269;BME280;7218;51.480;7.006;2022-12-18T09:48:19;101806.34;;;-1.07;89.81
14269;BME280;7218;51.480;7.006;2022-12-18T09:50:50;101807.72;;;-0.97;89.81
14269;BME280;7218;51.480;7.006;2022-12-18T09:53:22;101810.25;;;-0.81;89.51
14269;BME280;7218;51.480;7.006;2022-12-18T09:55:52;101815.41;;;-0.63;89.16
14269;BME280;7218;51.480;7.006;2022-12-18T09:58:26;101810.25;;;-0.47;88.48
14269;BME280;7218;51.480;7.006;2022-12-18T10:00:54;101809.31;;;-0.31;88.35
14269;BME280;7218;51.480;7.006;2022-12-18T10:03:21;101803.09;;;-0.19;88.81
14269;BME280;7218;51.480;7.006;2022-12-18T10:05:56;101798.66;;;-0.05;88.06
14269;BME280;7218;51.480;7.006;2022-12-18T10:08:33;101782.28;;;0.11;87.36
14269;BME280;7218;51.480;7.006;2022-12-18T10:11:20;101770.31;;;0.29;87.06
14269;BME280;7218;51.480;7.006;2022-12-18T10:13:52;101772.63;;;0.42;87.15
14269;BME280;7218;51.480;7.006;2022-12-18T10:16:25;101766.28;;;0.53;87.29
14269;BME280;7218;51.480;7.006;2022-12-18T10:19:11;101766.81;;;0.65;87.27
14269;BME280;7218;51.480;7.006;2022-12-18T10:21:50;101755.16;;;0.72;86.88
14269;BME280;7218;51.480;7.006;2022-12-18T10:24:22;101747.22;;;0.86;86.76
14269;BME280;7218;51.480;7.006;2022-12-18T10:26:52;101744.06;;;0.92;85.32
14269;BME280;7218;51.480;7.006;2022-12-18T10:29:19;101746.94;;;1.00;85.88
14269;BME280;7218;51.480;7.006;2022-12-18T10:31:45;101734.63;;;1.12;85.60
14269;BME280;7218;51.480;7.006;2022-12-18T10:34:12;101737.81;;;1.27;83.38
14269;BME280;7218;51.480;7.006;2022-12-18T10:36:39;101739.78;;;1.53;83.86
14269;BME280;7218;51.480;7.006;2022-12-18T10:39:25;101736.47;;;1.78;83.35
14269;BME280;7218;51.480;7.006;2022-12-18T10:42:09;101730.41;;;1.98;81.19
14269;BME280;7218;51.480;7.006;2022-12-18T10:44:36;101728.25;;;2.09;80.96
14269;BME280;7218;51.480;7.006;2022-12-18T10:47:06;101727.28;;;2.29;78.61
14269;BME280;7218;51.480;7.006;2022-12-18T10:49:42;101716.88;;;2.48;79.29
14269;BME280;7218;51.480;7.006;2022-12-18T10:52:15;101713.19;;;2.66;nan
14269;BME280;7218;51.480;7.006;2022-12-18T10:54:49;101718.56;;;2.72;77.43
14269;BME280;7218;51.480;7.006;2022-12-18T10:57:28;101707.03;;;2.86;76.78
14269;BME280;7218;51.480;7.006;2022-12-18T10:59:56;101700.09;;;2.83;72.81
14269;BME280;7218;51.480;7.006;2022-12-18T11:02:27;101701.94;;;2.87;71.54
14269;BME280;7218;51.480;7.006;2022-12-18T11:04:54;101694.22;;;2.87;71.87
14269;BME280;7218;51.480;7.006;2022-12-18T11:07:20;101698.47;;;2.87;69.46
14269;BME280;7218;51.480;7.006;2022-12-18T11:09:59;101693.84;;;3.02;69.13
14269;BME280;7218;51.480;7.006;2022-12-18T11:12:28;101694.06;;;3.08;68.29
14269;BME280;7218;51.480;7.006;2022-12-18T11:14:55;101691.56;;;3.11;64.55
14269;BME280;7218;51.480;7.006;2022-12-18T11:17:28;101687.53;;;3.19;62.50
14269;BME280;7218;51.480;7.006;2022-12-18T11:19:57;101686.84;;;3.23;60.56
14269;BME280;7218;51.480;7.006;2022-12-18T11:22:25;101682.13;;;3.37;59.12
14269;BME280;7218;51.480;7.006;2022-12-18T11:24:56;101678.81;;;3.41;58.49
14269;BME280;7218;51.480;7.006;2022-12-18T11:27:23;101659.22;;;3.46;56.64
14269;BME280;7218;51.480;7.006;2022-12-18T11:29:50;101666.06;;;3.45;64.39
14269;BME280;7218;51.480;7.006;2022-12-18T11:32:25;101675.31;;;3.12;71.71
14269;BME280;7218;51.480;7.006;2022-12-18T11:34:59;101663.91;;;3.06;73.37
14269;BME280;7218;51.480;7.006;2022-12-18T11:37:27;101659.13;;;2.91;76.89
14269;BME280;7218;51.480;7.006;2022-12-18T11:39:59;101656.75;;;2.97;77.51
14269;BME280;7218;51.480;7.006;2022-12-18T11:42:34;101651.81;;;2.78;78.96
14269;BME280;7218;51.480;7.006;2022-12-18T11:45:16;101643.50;;;2.61;80.08
14269;BME280;7218;51.480;7.006;2022-12-18T11:47:51;101631.13;;;2.51;81.25
14269;BME280;7218;51.480;7.006;2022-12-18T11:50:21;101621.50;;;2.45;82.40
14269;BME280;7218;51.480;7.006;2022-12-18T11:52:50;101616.19;;;2.41;82.31
14269;BME280;7218;51.480;7.006;2022-12-18T11:55:25;101624.72;;;2.40;83.57
14269;BME280;7218;51.480;7.006;2022-12-18T11:57:58;101627.09;;;2.34;84.08
14269;BME280;7218;51.480;7.006;2022-12-18T12:00:25;101630.19;;;2.25;84.71
14269;BME280;7218;51.480;7.006;2022-12-18T12:03:18;101621.91;;;2.32;83.71
14269;BME280;7218;51.480;7.006;2022-12-18T12:05:58;101628.06;;;2.37;83.84
14269;BME280;7218;51.480;7.006;2022-12-18T12:08:36;101615.28;;;2.39;84.61
14269;BME280;7218;51.480;7.006;2022-12-18T12:11:13;101618.31;;;2.52;84.46
14269;BME280;7218;51.480;7.006;2022-12-18T12:14:01;101623.63;;;2.57;84.60
14269;BME280;7218;51.480;7.006;2022-12-18T12:16:36;101633.84;;;2.55;84.84
14269;BME280;7218;51.480;7.006;2022-12-18T12:19:15;101629.34;;;2.48;83.12
14269;BME280;7218;51.480;7.006;2022-12-18T12:21:50;101628.34;;;2.45;83.00
14269;BME280;7218;51.480;7.006;2022-12-18T12:24:29;101625.81;;;2.46;83.16
14269;BME280;7218;51.480;7.006;2022-12-18T12:27:08;101616.25;;;2.42;83.86
14269;BME280;7218;51.480;7.006;2022-12-18T12:29:46;101609.13;;;2.35;85.35
14269;BME280;7218;51.480;7.006;2022-12-18T12:32:26;101612.19;;;2.25;86.52
14269;BME280;7218;51.480;7.006;2022-12-18T12:35:08;101613.34;;;2.33;86.73
14269;BME280;7218;51.480;7.006;2022-12-18T12:37:45;101597.28;;;2.40;87.29
14269;BME280;7218;51.480;7.006;2022-12-18T12:40:18;101597.28;;;2.40;87.64
14269;BME280;7218;51.480;7.006;2022-12-18T12:42:52;101604.50;;;2.50;88.13
14269;BME280;7218;51.480;7.006;2022-12-18T12:45:42;101596.56;;;2.44;86.53
14269;BME280;7218;51.480;7.006;2022-12-18T12:48:17;101596.56;;;2.44;86.99
14269;BME280;7218;51.480;7.006;2022-12-18T12:50:45;101612.31;;;2.28;86.15
14269;BME280;7218;51.480;7.006;2022-12-18T12:53:22;101595.19;;;2.29;85.79
14269;BME280;7218;51.480;7.006;2022-12-18T12:55:50;101585.69;;;2.28;86.21
14269;BME280;7218;51.480;7.006;2022-12-18T12:58:25;101581.53;;;2.31;86.54
14269;BME280;7218;51.480;7.006;2022-12-18T13:00:58;101587.47;;;2.29;86.64
14269;BME280;7218;51.480;7.006;2022-12-18T13:03:35;101584.59;;;2.21;87.05
14269;BME280;7218;51.480;7.006;2022-12-18T13:06:09;101589.88;;;2.24;87.09
14269;BME280;7218;51.480;7.006;2022-12-18T13:08:53;101589.88;;;2.24;87.03
14269;BME280;7218;51.480;7.006;2022-12-18T13:11:30;101583.69;;;2.19;87.09
14269;BME280;7218;51.480;7.006;2022-12-18T13:14:22;101589.81;;;2.23;86.96
14269;BME280;7218;51.480;7.006;2022-12-18T13:16:49;101586.94;;;2.15;87.31
14269;BME280;7218;51.480;7.006;2022-12-18T13:19:22;101583.56;;;2.16;88.15